29 settembre 2022

Tempo Codice Tempo metereologico Temp. Vista Base nuvolosa Vento METAR/SPECI
11:20
V
12 °C 10 km+ - 240° 240° 5 kt METAR EDWE 290920Z 24005KT 9999 FEW008 12/10 Q1001
10:50
V
11 °C 10 km+ - 210° 210° 4 kt METAR EDWE 290850Z 21004KT 180V240 CAVOK 11/10 Q1001
10:20
V
10 °C 10 km+ - 220° 220° 4 kt METAR EDWE 290820Z 22004KT 9999 FEW004 10/09 Q1001
09:50
M
8 °C 6 km - Var Var 1 kt METAR EDWE 290750Z VRB01KT 6000 NSC 08/08 Q1001
09:20
L
7 °C 300 m - Var 000° 0 kt METAR EDWE 290720Z 00000KT 0300 R07/P2000N FG NSC 07/06 Q1000
08:50
L
4 °C 400 m - Var 000° 0 kt METAR EDWE 290650Z 00000KT 0400 R07/P2000N FG FEW004 04/04 Q1000
08:20
L
3 °C 600 m - Var 000° 0 kt METAR EDWE 290620Z 00000KT 0600 R07/0900D FG FEW004 03/03 Q1000
07:50
L
3 °C 350 m - Var Var 2 kt METAR EDWE 290550Z VRB02KT 0350 R07/0650U FG VV/// 03/03 Q1000
07:20
L
2 °C 300 m - Var Var 2 kt METAR EDWE 290520Z VRB02KT 0300 R07/0650D FG VV/// 02/02 Q1000
06:50
L
2 °C 500 m - Var Var 1 kt METAR EDWE 290450Z VRB01KT 0500 R07/1200D FG VV/// 02/02 Q0999
06:20
L
3 °C 450 m - Var Var 2 kt METAR EDWE 290420Z VRB02KT 0450 R07/1200D FG VV/// 03/03 Q0999
05:50
L
3 °C 600 m - Var Var 2 kt METAR EDWE 290350Z AUTO VRB02KT 0600 R07/2000U // VV/// 03/03 Q0999
05:20
L
3 °C 650 m - Var Var 1 kt METAR EDWE 290320Z AUTO VRB01KT 0650 R07/1100U // VV/// 03/02 Q0999
04:50
L
3 °C 550 m - Var 000° 0 kt METAR EDWE 290250Z AUTO 00000KT 0550 R07/1300D // VV/// 03/02 Q0999
04:20
L
3 °C 450 m - 150° 150° 4 kt METAR EDWE 290220Z AUTO 15004KT 0450 R07/0650D // VV/// 03/03 Q0999
03:50
L
3 °C 500 m - Var Var 2 kt METAR EDWE 290150Z AUTO VRB02KT 0500 R07/0800N // VV/// 03/03 Q0999
03:20
L
4 °C 550 m - Var Var 1 kt METAR EDWE 290120Z AUTO VRB01KT 0550 R07/1600U // VV/// 04/04 Q0999
02:50
L
3 °C 500 m - 150° 150° 2 kt METAR EDWE 290050Z AUTO 15002KT 0500 R07/1200U // VV/// 03/03 Q0999
02:20
L
4 °C 600 m - Var 000° 0 kt METAR EDWE 290020Z AUTO 00000KT 0600 R07/0900D // SCT003/// 04/03 Q0999
01:50
L
5 °C 400 m - 150° 150° 3 kt METAR EDWE 282350Z AUTO 15003KT 0400 R07/0800N // VV/// 05/05 Q0999
01:20
L
4 °C 400 m - Var Var 1 kt METAR EDWE 282320Z AUTO VRB01KT 0400 R07/1400D // VV/// 04/04 Q0999
00:50
L
4 °C 300 m - Var Var 1 kt METAR EDWE 282250Z AUTO VRB01KT 0300 R07/1800U // VV/// 04/04 Q0999
00:20
L
4 °C 350 m - Var Var 2 kt METAR EDWE 282220Z AUTO VRB02KT 0350 R07/0450D // VV/// 04/03 Q0999

28 settembre 2022

Tempo Codice Tempo metereologico Temp. Vista Base nuvolosa Vento METAR/SPECI
23:50
L
6 °C 250 m - Var 000° 0 kt METAR EDWE 282150Z AUTO 00000KT 0250 R07/0350N // SCT002/// 06/06 Q0998
23:20
L
6 °C 550 m - Var Var 2 kt METAR EDWE 282120Z AUTO VRB02KT 0550 R07/0700D // NCD 06/06 Q0998
22:50
L
5 °C 600 m - Var Var 2 kt METAR EDWE 282050Z AUTO VRB02KT 0600 R07/1100U // NCD 05/04 Q0998
22:20
L
6 °C 600 m - 130° 130° 1 kt METAR EDWE 282020Z AUTO 13001KT 0600 R07/1000U // FEW003/// 06/05 Q0998
21:50
L
7 °C 550 m - 150° 150° 3 kt METAR EDWE 281950Z AUTO 15003KT 080V190 0550 R07/0750D // NCD 07/06 Q0998
21:20
L
8 °C 750 m - 140° 140° 3 kt METAR EDWE 281920Z AUTO 14003KT 0750 R07/1500D // NCD 08/07 Q0998
20:50
L
8 °C 900 m - 130° 130° 4 kt METAR EDWE 281850Z AUTO 13004KT 0900 R07/1200D // FEW003/// 08/07 Q0998
14:50
V
14 °C 10 km+ - 220° 220° 4 kt METAR EDWE 281250Z 22004KT 160V270 9999 SCT021CB 14/08 Q0996
14:20
V
13 °C 10 km+ - 230° 230° 4 kt METAR EDWE 281220Z 23004KT 160V300 9999 SCT018 13/08 Q0996
13:50
V
13 °C 10 km+ - 210° 210° 7 kt METAR EDWE 281150Z 21007KT 160V250 9999 SCT014 SCT048 13/08 Q0996
12:20
V
11 °C 10 km+ - 180° 180° 4 kt METAR EDWE 281020Z 18004KT 140V240 9999 SCT008 11/09 Q0996
11:50
V
11 °C 10 km+ - Var Var 2 kt METAR EDWE 280950Z VRB02KT 9999 SCT008 11/10 Q0996
11:20
L
8 °C 10 km+ 400 ft 220° 220° 3 kt METAR EDWE 280920Z 22003KT 190V250 9999 SCT001 BKN004 08/08 Q0996
10:50
L
8 °C 2 km 400 ft 210° 210° 3 kt METAR EDWE 280850Z 21003KT 170V260 2000 BR SCT001 BKN004 08/07 Q0995
10:20
L
7 °C 450 m - 210° 210° 3 kt METAR EDWE 280820Z 21003KT 180V260 0450 R25/0700N FG VV/// 07/07 Q0995
08:20
L
6 °C 350 m - 220° 220° 3 kt METAR EDWE 280620Z 22003KT 0350 R25/0450N FG VV/// 06/06 Q0994
07:50
L
4 °C 250 m - 220° 220° 1 kt METAR EDWE 280550Z 22001KT 0250 R25/0275N FG VV/// 04/03 Q0994
07:20
L
2 °C 500 m - Var 000° 0 kt METAR EDWE 280520Z 00000KT 0500 R25/0450N FG SCT001 SCT005 02/02 Q0994
06:50
L
4 °C 800 m - 200° 200° 2 kt METAR EDWE 280450Z 20002KT 0800 R25/1700U FG FEW005 04/03 Q0994
06:20
L
3 °C 650 m - Var 000° 0 kt METAR EDWE 280420Z 00000KT 0650 R25/1100U FG VV/// 03/03 Q0994
05:50
L
4 °C 650 m - Var Var 1 kt METAR EDWE 280350Z AUTO VRB01KT 0650 R25/0600D // VV/// 04/03 Q0994
05:20
L
4 °C 700 m 16.000 ft Var Var 1 kt METAR EDWE 280320Z AUTO VRB01KT 0700 R25/1100D // SCT005/// OVC160/// 04/04 Q0994
04:50
L
4 °C 800 m - Var 000° 0 kt METAR EDWE 280250Z AUTO 00000KT 0800 R25/0900U // VV/// 04/03 Q0994
04:20
L
3 °C 600 m - Var Var 1 kt METAR EDWE 280220Z AUTO VRB01KT 0600 R25/0700N // VV/// 03/03 Q0994
03:50
L
4 °C 600 m - 120° 120° 1 kt METAR EDWE 280150Z AUTO 12001KT 0600 R25/0900N // VV/// 04/04 Q0994
03:20
L
5 °C 650 m - Var Var 2 kt METAR EDWE 280120Z AUTO VRB02KT 0650 R25/0900D // FEW003/// 05/04 Q0994
02:50
L
6 °C 1,3 km - Var 000° 0 kt METAR EDWE 280050Z AUTO 00000KT 1300 R25/P2000N // SCT100/// 06/06 Q0994
02:20
V
7 °C 10 km+ - 190° 190° 3 kt METAR EDWE 280020Z AUTO 19003KT 9999 // SCT100/// 07/06 Q0995
01:50
V
8 °C 10 km+ 10.000 ft 200° 200° 2 kt METAR EDWE 272350Z AUTO 20002KT 9999 // OVC100/// 08/07 Q0995
01:20
V
8 °C 10 km+ 10.000 ft 190° 190° 4 kt METAR EDWE 272320Z AUTO 19004KT 9999 // OVC100/// 08/07 Q0995
00:50
V
8 °C 10 km+ 10.000 ft 200° 200° 4 kt METAR EDWE 272250Z AUTO 20004KT 9999 // BKN100/// 08/07 Q0995
00:20
V
8 °C 10 km+ 10.000 ft 200° 200° 4 kt METAR EDWE 272220Z AUTO 20004KT 9999 // BKN100/// OVC120/// 08/07 Q0995

27 settembre 2022

Tempo Codice Tempo metereologico Temp. Vista Base nuvolosa Vento METAR/SPECI
23:50
V
8 °C 10 km+ 9.200 ft 210° 210° 4 kt METAR EDWE 272150Z AUTO 21004KT 9999 // OVC092/// 08/07 Q0995
23:20
V
8 °C 10 km+ 11.000 ft 210° 210° 5 kt METAR EDWE 272120Z AUTO 21005KT 9999 // BKN110/// 08/07 Q0995
22:50
V
8 °C 10 km+ 13.000 ft 210° 210° 4 kt METAR EDWE 272050Z AUTO 21004KT 9999 // BKN130/// 08/07 Q0995
22:20
V
7 °C 10 km+ 17.000 ft 230° 230° 3 kt METAR EDWE 272020Z AUTO 23003KT 9999 // SCT130/// BKN170/// 07/06 Q0995
21:50
V
8 °C 10 km+ 18.000 ft 240° 240° 6 kt METAR EDWE 271950Z AUTO 24006KT 9999 // FEW067/// BKN180/// 08/06 Q0995
21:20
V
8 °C 10 km+ 16.000 ft 230° 230° 6 kt METAR EDWE 271920Z AUTO 23006KT 9999 // FEW071/// BKN160/// 08/06 Q0995
20:50
V
9 °C 10 km+ - 220° 220° 5 kt METAR EDWE 271850Z AUTO 22005KT 9999 // SCT140/// 09/07 Q0995
14:50
V
10 °C 10 km+ 3.000 ft 220° 220° 7 kt METAR EDWE 271250Z 22007KT 170V260 9999 RA SCT014 BKN030 10/08 Q0995
14:20
V
11 °C 10 km+ 4.900 ft Var Var 2 kt METAR EDWE 271220Z VRB02KT 9999 FEW014 BKN049 11/09 Q0994 RERA
13:50
M
11 °C 10 km+ 2.100 ft 260° 260° 11 kt METAR EDWE 271150Z 26011KT 9999 -RA SCT012 BKN021 11/09 Q0995
Dati più vecchi

Noi e le terze parti seguiamo il tuo comportamento in internet sul nostro sito web con i cookie. Se continui, riteniamo che tu sia d'accordo con la nostra politica sui cookie. Per saperne di più